Terminal Aerodrome Forecast
Issued by NWS Knoxville/Tri Cities, TN

Home | Current Version | Previous Version | Text Only | Print | Product List | Glossary On
Versions: 1 2 3 4 5 6 7 8 9 10 11 12 13 14 15 16 17 18 19 20 21
000
FTUS44 KMRX 272320
TAFTYS
TAF
KTYS 272320Z 2800/2824 00000KT P6SM SCT050 OVC100
     FM280600 00000KT 4SM -RA BR OVC025
     FM280800 00000KT 2SM RA BR OVC015
     FM281000 00000KT 2SM RA BR OVC007
     FM281800 VRB03KT 3SM -DZ BR OVC007=

USA.gov is the U.S. government's official web portal to all federal, state and local government web resources and services.